createdAt,value
2022-07-26T00:02:18.463Z,2.80
2022-07-26T00:04:46.452Z,2.90
2022-07-26T00:07:14.180Z,2.93
2022-07-26T00:09:48.066Z,3.17
2022-07-26T00:12:16.754Z,3.03
2022-07-26T00:14:44.631Z,3.07
2022-07-26T00:17:12.434Z,3.53
2022-07-26T00:19:40.795Z,2.53
2022-07-26T00:22:26.140Z,3.73
2022-07-26T00:24:55.375Z,3.27
2022-07-26T00:27:23.264Z,2.47
2022-07-26T00:29:53.735Z,3.00
2022-07-26T00:32:21.789Z,2.90
2022-07-26T00:34:52.015Z,3.33
2022-07-26T00:37:20.912Z,2.83
2022-07-26T00:39:49.190Z,2.70
2022-07-26T00:42:18.647Z,3.70
2022-07-26T00:44:47.563Z,3.17
2022-07-26T00:47:16.570Z,3.70
2022-07-26T00:49:44.917Z,3.00
2022-07-26T00:52:13.481Z,3.17
2022-07-26T00:54:44.118Z,3.60
2022-07-26T00:57:11.864Z,2.83
2022-07-26T00:59:41.373Z,3.43
2022-07-26T01:02:10.841Z,3.43
2022-07-26T01:04:39.564Z,2.70
2022-07-26T01:07:14.732Z,2.87
2022-07-26T01:09:44.063Z,2.97
2022-07-26T01:12:12.836Z,3.23
2022-07-26T01:14:45.010Z,2.90
2022-07-26T01:17:13.551Z,2.17
2022-07-26T01:19:42.163Z,2.63
2022-07-26T01:22:14.553Z,2.50
2022-07-26T01:24:42.997Z,2.30
2022-07-26T01:27:10.974Z,2.47
2022-07-26T01:29:39.164Z,2.33
2022-07-26T01:32:07.898Z,2.70
2022-07-26T01:34:35.952Z,3.10
2022-07-26T01:37:05.973Z,4.30
2022-07-26T01:39:35.136Z,2.80
2022-07-26T01:42:02.905Z,2.87
2022-07-26T01:44:30.674Z,2.17
2022-07-26T01:46:59.231Z,2.33
2022-07-26T01:49:27.677Z,3.00
2022-07-26T01:51:55.624Z,2.80
2022-07-26T01:54:24.398Z,2.80
2022-07-26T01:56:54.148Z,2.70
2022-07-26T01:59:22.050Z,3.57
2022-07-26T02:01:50.137Z,2.80
2022-07-26T02:04:31.914Z,2.40
2022-07-26T02:06:59.802Z,2.80
2022-07-26T02:09:27.912Z,3.30
2022-07-26T02:12:01.187Z,4.63
2022-07-26T02:14:29.729Z,2.50
2022-07-26T02:17:00.060Z,3.43
2022-07-26T02:19:28.310Z,3.13
2022-07-26T02:21:56.753Z,3.60
2022-07-26T02:24:25.031Z,2.73
2022-07-26T02:26:52.998Z,3.40
2022-07-26T02:29:22.096Z,3.70
2022-07-26T02:31:49.952Z,2.20
2022-07-26T02:34:18.304Z,4.03
2022-07-26T02:36:46.200Z,2.33
2022-07-26T02:39:14.644Z,2.20
2022-07-26T02:41:42.355Z,2.40
2022-07-26T02:44:11.203Z,2.20
2022-07-26T02:46:40.987Z,2.60
2022-07-26T02:49:08.912Z,2.57
2022-07-26T02:51:36.667Z,2.70
2022-07-26T02:54:04.646Z,3.33
2022-07-26T02:56:32.796Z,3.37
2022-07-26T02:59:00.651Z,2.63
2022-07-26T03:01:28.647Z,2.53
2022-07-26T03:03:58.183Z,2.80
2022-07-26T03:06:25.920Z,3.20
2022-07-26T03:08:53.825Z,3.27
2022-07-26T03:11:21.596Z,5.10
2022-07-26T03:13:49.350Z,2.50
2022-07-26T03:16:20.438Z,2.30
2022-07-26T03:18:50.750Z,2.60
2022-07-26T03:21:19.862Z,2.43
2022-07-26T03:23:47.882Z,2.33
2022-07-26T03:26:15.960Z,3.37
2022-07-26T03:28:44.782Z,2.43
2022-07-26T03:31:13.202Z,2.40
2022-07-26T03:33:41.296Z,2.97
2022-07-26T03:36:11.460Z,2.60
2022-07-26T03:38:42.248Z,2.77
2022-07-26T03:41:13.516Z,2.33
2022-07-26T03:43:41.724Z,2.13
2022-07-26T03:46:10.112Z,2.30
2022-07-26T03:48:38.098Z,2.63
2022-07-26T03:51:06.294Z,1.90
2022-07-26T03:53:34.627Z,2.90
2022-07-26T03:56:22.015Z,2.70
2022-07-26T03:58:49.875Z,2.80
2022-07-26T04:01:18.110Z,2.40
2022-07-26T04:03:47.920Z,3.37
2022-07-26T04:06:16.742Z,2.57
2022-07-26T04:08:45.662Z,2.70
2022-07-26T04:11:15.126Z,2.47
2022-07-26T04:13:43.261Z,2.27
2022-07-26T04:16:11.389Z,2.60
2022-07-26T04:18:39.566Z,2.27
2022-07-26T04:21:07.566Z,2.30
2022-07-26T04:23:35.216Z,2.83
2022-07-26T04:26:03.206Z,2.47
2022-07-26T04:28:32.957Z,5.97
2022-07-26T04:31:01.579Z,2.40
2022-07-26T04:33:29.404Z,2.40
2022-07-26T04:35:57.112Z,2.67
2022-07-26T04:38:25.198Z,8.03
2022-07-26T04:40:53.529Z,3.20
2022-07-26T04:43:21.283Z,2.40
2022-07-26T04:45:50.536Z,3.00
2022-07-26T04:48:18.682Z,2.67
2022-07-26T04:50:46.632Z,2.50
2022-07-26T04:53:14.480Z,2.47
2022-07-26T04:55:43.036Z,2.10
2022-07-26T04:58:11.442Z,2.97
2022-07-26T05:01:08.610Z,3.70
2022-07-26T05:03:29.728Z,3.27
2022-07-26T05:05:58.060Z,2.60
2022-07-26T05:08:26.113Z,3.17
2022-07-26T05:10:55.868Z,3.30
2022-07-26T05:13:30.323Z,3.10
2022-07-26T05:15:58.998Z,3.80
2022-07-26T05:18:27.587Z,3.87
2022-07-26T05:20:58.995Z,4.67
2022-07-26T05:23:26.736Z,6.73
2022-07-26T05:25:55.477Z,6.07
2022-07-26T05:28:23.190Z,4.77
2022-07-26T05:30:51.547Z,3.90
2022-07-26T05:33:19.542Z,3.30
2022-07-26T05:35:47.515Z,4.00
2022-07-26T05:38:16.915Z,3.20
2022-07-26T05:40:50.088Z,3.73
2022-07-26T05:43:18.632Z,3.20
2022-07-26T05:45:46.569Z,2.77
2022-07-26T05:48:14.409Z,3.37
2022-07-26T05:50:42.334Z,3.90
2022-07-26T05:53:10.333Z,3.10
2022-07-26T05:55:39.722Z,4.03
2022-07-26T05:58:08.416Z,3.10
2022-07-26T06:00:36.497Z,3.80
2022-07-26T06:03:22.155Z,3.17
2022-07-26T06:05:50.660Z,3.60
2022-07-26T06:08:19.465Z,3.10
2022-07-26T06:10:49.610Z,3.23
2022-07-26T06:13:18.274Z,3.13
2022-07-26T06:15:46.747Z,4.53
2022-07-26T06:18:15.248Z,2.70
2022-07-26T06:20:44.541Z,2.20
2022-07-26T06:23:13.563Z,4.70
2022-07-26T06:25:42.089Z,2.80
2022-07-26T06:28:12.382Z,4.10
2022-07-26T06:30:41.233Z,3.57
2022-07-26T06:33:09.695Z,3.30
2022-07-26T06:35:39.403Z,4.10
2022-07-26T06:38:08.395Z,25.73
2022-07-26T06:40:37.010Z,18.13
2022-07-26T06:43:05.424Z,3.20
2022-07-26T06:45:34.853Z,2.70
2022-07-26T06:48:02.921Z,3.27
2022-07-26T06:50:31.147Z,4.63
2022-07-26T06:52:59.262Z,4.20
2022-07-26T06:55:27.070Z,11.67
2022-07-26T06:57:55.117Z,12.10
2022-07-26T07:00:23.004Z,19.73
2022-07-26T07:02:52.926Z,17.40
2022-07-26T07:05:20.967Z,14.80
2022-07-26T07:07:49.414Z,13.80
2022-07-26T07:10:17.625Z,20.10
2022-07-26T07:12:48.480Z,76.43
2022-07-26T07:15:16.419Z,31.27
2022-07-26T07:17:44.997Z,32.35
2022-07-26T07:20:15.048Z,38.97
2022-07-26T07:22:43.175Z,63.45
2022-07-26T07:25:11.399Z,59.40
2022-07-26T07:27:43.105Z,72.80
2022-07-26T07:30:12.697Z,78.85
2022-07-26T07:32:40.836Z,48.13
2022-07-26T07:35:12.878Z,34.25
2022-07-26T07:37:52.681Z,33.35
2022-07-26T07:40:22.793Z,29.27
2022-07-26T07:42:50.739Z,31.58
2022-07-26T07:45:19.360Z,29.23
2022-07-26T07:47:47.142Z,38.03
2022-07-26T07:50:15.187Z,36.05
2022-07-26T07:52:47.468Z,37.97
2022-07-26T07:55:37.715Z,30.50
2022-07-26T07:58:03.312Z,57.78
2022-07-26T08:00:31.342Z,73.38
2022-07-26T08:02:59.166Z,52.50
2022-07-26T08:05:27.268Z,83.10
2022-07-26T08:07:56.800Z,97.10
2022-07-26T08:10:24.675Z,71.57
2022-07-26T08:12:53.004Z,83.40
2022-07-26T08:15:22.021Z,80.85
2022-07-26T08:17:54.623Z,105.00
2022-07-26T08:20:24.966Z,87.97
2022-07-26T08:22:53.216Z,162.98
2022-07-26T08:25:23.141Z,91.93
2022-07-26T08:28:09.276Z,106.53
2022-07-26T08:30:38.773Z,81.65
2022-07-26T08:33:06.715Z,116.53
2022-07-26T08:35:34.530Z,81.88
2022-07-26T08:38:02.349Z,73.75
2022-07-26T08:40:31.595Z,66.45
2022-07-26T08:42:59.797Z,62.75
2022-07-26T08:45:30.609Z,74.00
2022-07-26T08:50:47.222Z,48.03
2022-07-26T08:53:15.270Z,33.47
2022-07-26T08:56:05.975Z,52.35
2022-07-26T08:58:34.624Z,68.97
2022-07-26T09:01:07.203Z,75.75
2022-07-26T09:03:37.943Z,106.25
2022-07-26T09:06:14.356Z,73.15
2022-07-26T09:08:43.048Z,72.20
2022-07-26T09:11:32.314Z,76.28
2022-07-26T09:14:01.971Z,78.53
2022-07-26T09:16:31.256Z,62.60
2022-07-26T09:19:19.154Z,57.63
2022-07-26T09:21:47.681Z,60.53
2022-07-26T09:24:33.823Z,67.63
2022-07-26T09:27:05.709Z,71.78
2022-07-26T09:29:47.571Z,77.65
2022-07-26T09:32:18.458Z,55.78
2022-07-26T09:34:53.070Z,68.97
2022-07-26T09:37:35.064Z,62.47
2022-07-26T09:40:06.611Z,79.65
2022-07-26T09:42:36.295Z,67.63
2022-07-26T09:45:15.840Z,61.70
2022-07-26T09:47:43.696Z,147.18
2022-07-26T09:50:14.323Z,243.48
2022-07-26T09:52:58.117Z,271.85
2022-07-26T09:55:26.348Z,242.93
2022-07-26T09:57:55.927Z,85.95
2022-07-26T10:00:25.883Z,55.03
2022-07-26T10:02:54.391Z,53.63
2022-07-26T10:05:23.059Z,47.88
2022-07-26T10:07:51.919Z,65.45
2022-07-26T10:10:24.825Z,46.42
2022-07-26T10:12:55.723Z,54.55
2022-07-26T10:15:42.958Z,80.70
2022-07-26T10:18:16.701Z,62.22
2022-07-26T10:20:50.633Z,141.60
2022-07-26T10:23:38.405Z,128.75
2022-07-26T10:26:08.299Z,76.78
2022-07-26T10:28:41.462Z,74.15
2022-07-26T10:31:31.885Z,94.18
2022-07-26T10:34:02.420Z,197.35
2022-07-26T10:36:37.267Z,67.80
2022-07-26T10:39:14.172Z,63.20
2022-07-26T10:41:45.129Z,56.10
2022-07-26T10:44:33.561Z,54.78
2022-07-26T10:47:12.761Z,52.10
2022-07-26T10:49:42.105Z,68.72
2022-07-26T10:52:13.642Z,57.30
2022-07-26T10:55:09.381Z,52.58
2022-07-26T10:57:39.045Z,42.50
2022-07-26T11:00:27.965Z,22.73
2022-07-26T11:02:59.008Z,37.53
2022-07-26T11:05:31.636Z,19.27
2022-07-26T11:08:05.473Z,15.23
2022-07-26T11:10:35.091Z,15.45
2022-07-26T11:13:23.957Z,18.58
2022-07-26T11:16:00.347Z,19.27
2022-07-26T11:18:32.682Z,16.02
2022-07-26T11:21:10.908Z,24.13
2022-07-26T11:23:41.202Z,22.88
2022-07-26T11:26:15.281Z,31.55
2022-07-26T11:29:03.999Z,26.17
2022-07-26T11:31:50.384Z,47.15
2022-07-26T11:34:25.677Z,65.22
2022-07-26T11:36:55.623Z,67.60
2022-07-26T11:39:25.224Z,51.08
2022-07-26T11:42:00.736Z,148.85
2022-07-26T11:44:30.414Z,100.47
2022-07-26T11:47:01.029Z,59.45
2022-07-26T11:52:25.676Z,83.15
2022-07-26T11:54:55.589Z,45.08
2022-07-26T11:57:29.525Z,31.27
2022-07-26T11:59:57.547Z,25.10
2022-07-26T12:02:27.461Z,28.10
2022-07-26T12:05:18.474Z,19.65
2022-07-26T12:07:58.861Z,22.13
2022-07-26T12:10:27.388Z,18.02
2022-07-26T12:13:08.826Z,21.45
2022-07-26T12:15:47.885Z,15.13
2022-07-26T12:18:25.654Z,17.75
2022-07-26T12:21:05.537Z,14.57
2022-07-26T12:23:45.253Z,13.82
2022-07-26T12:26:23.752Z,14.60
2022-07-26T12:28:52.479Z,21.38
2022-07-26T12:31:25.159Z,19.15
2022-07-26T12:33:54.709Z,20.58
2022-07-26T12:36:27.168Z,17.63
2022-07-26T12:38:57.327Z,15.82
2022-07-26T12:41:35.833Z,16.50
2022-07-26T12:44:04.032Z,19.65
2022-07-26T12:46:33.817Z,112.80
2022-07-26T12:49:03.779Z,74.63
2022-07-26T12:51:31.854Z,11.00
2022-07-26T12:54:00.247Z,12.40
2022-07-26T12:56:28.280Z,12.38
2022-07-26T12:59:01.154Z,17.60
2022-07-26T13:01:30.357Z,11.63
2022-07-26T13:03:58.432Z,14.30
2022-07-26T13:06:27.673Z,32.58
2022-07-26T13:08:56.675Z,10.82
2022-07-26T13:11:25.043Z,30.52
2022-07-26T13:13:53.351Z,16.02
2022-07-26T13:16:21.286Z,24.42
2022-07-26T13:18:49.721Z,24.98
2022-07-26T13:21:18.057Z,19.27
2022-07-26T13:23:47.192Z,24.42
2022-07-26T13:26:15.522Z,22.77
2022-07-26T13:28:44.219Z,35.33
2022-07-26T13:31:13.688Z,74.18
2022-07-26T13:33:41.497Z,105.38
2022-07-26T13:36:09.761Z,292.10
2022-07-26T13:38:37.560Z,25.85
2022-07-26T13:41:07.062Z,182.48
2022-07-26T13:43:36.329Z,113.78
2022-07-26T13:46:04.348Z,154.15
2022-07-26T13:48:32.372Z,78.70
2022-07-26T13:51:00.208Z,213.90
2022-07-26T13:53:30.057Z,7.60
2022-07-26T13:55:58.114Z,118.80
2022-07-26T13:58:27.178Z,115.00
2022-07-26T14:00:55.094Z,10.90
2022-07-26T14:03:23.086Z,8.23
2022-07-26T14:05:51.147Z,19.17
2022-07-26T14:08:19.210Z,4.20
2022-07-26T14:10:47.409Z,20.90
2022-07-26T14:13:16.343Z,15.60
2022-07-26T14:15:45.545Z,28.40
2022-07-26T14:18:13.545Z,4.00
2022-07-26T14:20:41.740Z,9.37
2022-07-26T14:23:10.243Z,29.03
2022-07-26T14:25:38.129Z,4.60
2022-07-26T14:28:06.296Z,42.33
2022-07-26T14:30:35.629Z,7.10
2022-07-26T14:33:06.026Z,9.23
2022-07-26T14:35:34.662Z,24.52
2022-07-26T14:38:02.488Z,13.50
2022-07-26T14:40:30.411Z,15.00
2022-07-26T14:42:58.996Z,13.90
2022-07-26T14:45:27.036Z,33.13
2022-07-26T14:47:54.933Z,15.30
2022-07-26T14:50:26.034Z,15.13
2022-07-26T14:52:56.643Z,78.25
2022-07-26T14:55:25.508Z,14.48
2022-07-26T14:57:53.948Z,16.95
2022-07-26T15:00:21.850Z,14.63
2022-07-26T15:02:50.679Z,11.38
2022-07-26T15:05:19.036Z,11.57
2022-07-26T15:07:48.261Z,15.57
2022-07-26T15:10:16.404Z,7.45
2022-07-26T15:12:45.291Z,84.95
2022-07-26T15:15:14.031Z,12.93
2022-07-26T15:17:41.848Z,8.13
2022-07-26T15:20:09.942Z,99.30
2022-07-26T15:22:38.399Z,11.80
2022-07-26T15:25:08.944Z,8.17
2022-07-26T15:27:36.774Z,43.83
2022-07-26T15:30:09.066Z,34.10
2022-07-26T15:32:44.133Z,18.83
2022-07-26T15:35:14.397Z,110.50
2022-07-26T15:37:44.820Z,68.47
2022-07-26T15:40:15.087Z,16.00
2022-07-26T15:42:45.675Z,27.70
2022-07-26T15:45:14.665Z,35.23
2022-07-26T15:47:54.762Z,22.05
2022-07-26T15:50:23.988Z,16.35
2022-07-26T15:52:52.102Z,11.75
2022-07-26T15:55:21.979Z,12.98
2022-07-26T15:57:49.808Z,70.05
2022-07-26T16:00:18.733Z,15.05
2022-07-26T16:02:46.763Z,14.55
2022-07-26T16:05:15.099Z,11.50
2022-07-26T16:07:44.004Z,15.30
2022-07-26T16:10:14.042Z,18.27
2022-07-26T16:12:43.861Z,15.88
2022-07-26T16:15:13.002Z,16.77
2022-07-26T16:17:41.624Z,15.35
2022-07-26T16:20:10.770Z,14.73
2022-07-26T16:22:41.704Z,32.00
2022-07-26T16:25:13.340Z,12.63
2022-07-26T16:27:44.638Z,29.05
2022-07-26T16:30:14.293Z,20.92
2022-07-26T16:32:43.424Z,17.27
2022-07-26T16:35:11.828Z,17.83
2022-07-26T16:37:39.727Z,53.13
2022-07-26T16:40:09.121Z,15.35
2022-07-26T16:42:37.414Z,13.75
2022-07-26T16:45:08.864Z,15.35
2022-07-26T16:47:37.228Z,16.17
2022-07-26T16:50:05.541Z,16.55
2022-07-26T16:52:33.495Z,19.42
2022-07-26T16:55:01.920Z,17.40
2022-07-26T16:57:30.093Z,22.67
2022-07-26T16:59:58.222Z,39.60
2022-07-26T17:02:28.158Z,19.58
2022-07-26T17:04:58.805Z,31.57
2022-07-26T17:07:26.937Z,20.77
2022-07-26T17:09:55.849Z,37.70
2022-07-26T17:12:24.620Z,9.43
2022-07-26T17:14:52.803Z,11.37
2022-07-26T17:17:20.850Z,12.57
2022-07-26T17:19:51.028Z,11.23
2022-07-26T17:22:19.755Z,21.87
2022-07-26T17:24:48.149Z,15.73
2022-07-26T17:27:16.140Z,8.17
2022-07-26T17:29:44.610Z,42.37
2022-07-26T17:32:12.807Z,8.70
2022-07-26T17:34:40.743Z,5.53
2022-07-26T17:37:10.493Z,10.43
2022-07-26T17:39:51.431Z,24.57
2022-07-26T17:42:21.053Z,61.43
2022-07-26T17:44:48.988Z,8.90
2022-07-26T17:47:28.044Z,9.60
2022-07-26T17:50:14.150Z,5.50
2022-07-26T17:52:49.134Z,9.30
2022-07-26T17:55:18.651Z,6.83
2022-07-26T17:57:48.163Z,18.47
2022-07-26T18:00:17.238Z,5.13
2022-07-26T18:02:45.170Z,7.40
2022-07-26T18:05:13.069Z,5.57
2022-07-26T18:07:41.539Z,30.83
2022-07-26T18:10:11.719Z,13.83
2022-07-26T18:12:40.151Z,6.23
2022-07-26T18:15:09.019Z,7.43
2022-07-26T18:17:37.360Z,5.37
2022-07-26T18:20:07.547Z,45.70
2022-07-26T18:22:35.356Z,5.40
2022-07-26T18:25:03.451Z,6.37
2022-07-26T18:27:32.672Z,5.90
2022-07-26T18:30:00.932Z,16.13
2022-07-26T18:32:29.503Z,5.40
2022-07-26T18:34:57.289Z,4.20
2022-07-26T18:37:25.166Z,5.07
2022-07-26T18:39:57.561Z,5.80
2022-07-26T18:42:26.391Z,4.30
2022-07-26T18:44:55.829Z,4.10
2022-07-26T18:47:23.873Z,4.87
2022-07-26T18:49:52.404Z,5.77
2022-07-26T18:52:31.936Z,12.97
2022-07-26T18:55:02.612Z,4.33
2022-07-26T18:57:30.869Z,4.20
2022-07-26T19:00:00.674Z,7.87
2022-07-26T19:02:28.803Z,3.60
2022-07-26T19:04:56.750Z,3.30
2022-07-26T19:07:24.664Z,3.90
2022-07-26T19:09:58.211Z,2.43
2022-07-26T19:12:26.874Z,2.40
2022-07-26T19:14:55.443Z,2.37
2022-07-26T19:17:24.936Z,2.87
2022-07-26T19:19:52.973Z,2.60
2022-07-26T19:22:22.651Z,4.70
2022-07-26T19:24:51.257Z,14.60
2022-07-26T19:27:19.209Z,4.33
2022-07-26T19:29:47.405Z,4.00
2022-07-26T19:32:15.678Z,2.70
2022-07-26T19:34:45.260Z,2.40
2022-07-26T19:37:13.312Z,2.63
2022-07-26T19:39:41.349Z,2.77
2022-07-26T19:42:10.121Z,2.40
2022-07-26T19:44:38.425Z,2.30
2022-07-26T19:47:06.390Z,2.20
2022-07-26T19:49:34.577Z,2.20
2022-07-26T19:52:08.337Z,2.13
2022-07-26T19:54:39.224Z,2.03
2022-07-26T19:57:08.436Z,2.20
2022-07-26T19:59:36.498Z,2.10
2022-07-26T20:02:05.683Z,2.53
2022-07-26T20:04:33.698Z,2.00
2022-07-26T20:07:02.977Z,2.10
2022-07-26T20:09:31.573Z,2.80
2022-07-26T20:12:00.484Z,2.53
2022-07-26T20:14:28.499Z,2.43
2022-07-26T20:16:57.059Z,6.47
2022-07-26T20:19:28.074Z,1.90
2022-07-26T20:21:56.694Z,2.10
2022-07-26T20:24:26.374Z,1.80
2022-07-26T20:26:54.520Z,2.00
2022-07-26T20:29:22.531Z,2.57
2022-07-26T20:31:50.443Z,1.87
2022-07-26T20:34:18.273Z,2.10
2022-07-26T20:36:46.075Z,2.00
2022-07-26T20:39:15.176Z,2.10
2022-07-26T20:41:44.587Z,2.10
2022-07-26T20:44:13.639Z,1.97
2022-07-26T20:46:41.822Z,2.73
2022-07-26T20:49:11.161Z,2.00
2022-07-26T20:51:39.522Z,1.90
2022-07-26T20:54:08.680Z,2.07
2022-07-26T20:56:36.667Z,2.20
2022-07-26T20:59:06.499Z,1.80
2022-07-26T21:01:35.580Z,2.20
2022-07-26T21:04:04.235Z,2.07
2022-07-26T21:06:33.213Z,2.40
2022-07-26T21:09:08.914Z,2.13
2022-07-26T21:11:37.751Z,2.10
2022-07-26T21:14:07.229Z,3.50
2022-07-26T21:16:35.768Z,2.40
2022-07-26T21:19:04.158Z,2.60
2022-07-26T21:21:34.452Z,2.77
2022-07-26T21:24:02.702Z,2.40
2022-07-26T21:26:30.611Z,2.63
2022-07-26T21:28:58.808Z,2.40
2022-07-26T21:31:28.167Z,4.20
2022-07-26T21:33:56.496Z,3.30
2022-07-26T21:36:24.841Z,2.50
2022-07-26T21:38:52.734Z,13.33
2022-07-26T21:41:20.826Z,2.60
2022-07-26T21:43:49.110Z,2.70
2022-07-26T21:46:17.133Z,2.30
2022-07-26T21:48:46.825Z,2.70
2022-07-26T21:51:14.886Z,2.97
2022-07-26T21:53:43.128Z,5.90
2022-07-26T21:56:11.696Z,3.13
2022-07-26T21:58:39.560Z,2.73
2022-07-26T22:01:08.762Z,2.30
2022-07-26T22:03:38.106Z,3.57
2022-07-26T22:06:09.779Z,2.10
2022-07-26T22:08:38.378Z,3.80
2022-07-26T22:11:06.674Z,2.40
2022-07-26T22:13:34.432Z,1.90
2022-07-26T22:16:02.489Z,5.23
2022-07-26T22:18:30.552Z,3.83
2022-07-26T22:20:59.271Z,2.10
2022-07-26T22:23:31.063Z,2.23
2022-07-26T22:26:02.121Z,2.80
2022-07-26T22:28:30.883Z,2.57
2022-07-26T22:30:59.659Z,2.47
2022-07-26T22:33:27.971Z,15.83
2022-07-26T22:35:56.029Z,3.27
2022-07-26T22:38:23.958Z,6.10
2022-07-26T22:40:54.878Z,2.20
2022-07-26T22:43:22.718Z,1.90
2022-07-26T22:45:50.868Z,2.70
2022-07-26T22:48:18.722Z,2.07
2022-07-26T22:50:46.810Z,2.30
2022-07-26T22:53:15.401Z,2.30
2022-07-26T22:55:43.330Z,2.20
2022-07-26T22:58:12.721Z,2.00
2022-07-26T23:00:40.724Z,2.13
2022-07-26T23:03:19.417Z,3.50
2022-07-26T23:05:48.016Z,7.70
2022-07-26T23:08:45.931Z,2.53
2022-07-26T23:11:05.450Z,2.10
2022-07-26T23:13:35.278Z,11.17
2022-07-26T23:16:03.360Z,2.57
2022-07-26T23:18:31.912Z,1.90
2022-07-26T23:20:59.762Z,6.73
2022-07-26T23:23:29.539Z,2.30
2022-07-26T23:25:57.593Z,2.70
2022-07-26T23:28:35.554Z,1.90
2022-07-26T23:31:08.404Z,2.40
2022-07-26T23:33:52.701Z,2.00
2022-07-26T23:36:23.649Z,2.20
2022-07-26T23:38:52.239Z,2.67
2022-07-26T23:41:20.422Z,3.00
2022-07-26T23:43:48.416Z,2.20
2022-07-26T23:46:17.883Z,2.00
2022-07-26T23:48:45.951Z,2.73
2022-07-26T23:51:13.858Z,3.13
2022-07-26T23:53:41.800Z,2.97
2022-07-26T23:56:09.969Z,2.47
2022-07-26T23:58:37.832Z,4.57
